Portada
METAR-TAF:

METAR-TAF

Aeroports :

Aeroport Internacional del Caire

El Caire, Egipte

latitud: 30-08N, longitud: 031-24E, altitud: 64 m

Observació

L'informe es va fer fa 52 minuts, a les 02:00 UTC
Vent 6 kt del Nord-Oest
Temperatura 25°C
Humitat 83%
Pressió 1009 hPa
Visibilitat 10 km o més
sense núvols per sota de 1500 mi sense presència de cumulonimbus.

METAR: HECA 200200Z 32006KT CAVOK 25/22 Q1009 NOSIG

Hora: 04:52 (02:52 UTC)

Pronòstic

L'informe es va fer fa 3 hores i 52 minuts, a les 23:00 UTC
Pronòstic vàlid del 20 a les 00 UTC al 21 a les 06 UTC
Vent 10 kt del Nord/Nord-Oest
Visibilitat 10 km o més
sense núvols per sota de 1500 mi sense presència de cumulonimbus.
Probabilitat 30%
l' 20 a les 03 UTC al 20 a les 08 UTC
Vent 3 kt amb direcció variable
Visibilitat: 4000 m
calitja

TAF: HECA 192300Z 2000/2106 33010KT CAVOK PROB30 2003/2008 VRB03KT 4000 HZ NSC

Observacions i pronòstics meteorològics de més de 4000 aeroports (METAR i TAF).

Les estacions disponibles són els punts grocs i vermells al mapa.

Posi el ratolí al punt desitjat per veure el nom de l'estació.

Feu clic per veure les observacions i els pronòstics meteorològics.

Per canviar el mapa: feu clic els botons verds amb una creu de color negre per apropar; al botó verd amb un guió per allunyar la imatge; o en les fletxes verdes per a mapes adjacents.


METAR-TAF: